createdAt,value
2017-04-15T04:01:00.617Z,1008.51
2017-04-15T04:01:26.321Z,1008.54
2017-04-15T04:01:51.882Z,1008.55
2017-04-15T04:02:17.446Z,1008.56
2017-04-15T04:02:43.018Z,1008.54
2017-04-15T04:03:08.686Z,1008.54
2017-04-15T04:03:34.231Z,1008.54
2017-04-15T04:03:59.791Z,1008.51
2017-04-15T04:04:25.338Z,1008.53
2017-04-15T04:04:50.906Z,1008.52
2017-04-15T04:05:16.531Z,1008.53
2017-04-15T04:05:42.089Z,1008.47
2017-04-15T04:06:07.626Z,1008.47
2017-04-15T04:06:33.250Z,1008.45
2017-04-15T04:06:58.822Z,1008.4
2017-04-15T04:07:24.374Z,1008.44
2017-04-15T04:07:49.943Z,1008.49
2017-04-15T04:08:15.592Z,1008.43
2017-04-15T04:08:41.155Z,1008.49
2017-04-15T04:09:06.706Z,1008.45
2017-04-15T04:09:32.270Z,1008.48
2017-04-15T04:09:57.834Z,1008.48
2017-04-15T04:10:23.395Z,1008.47
2017-04-15T04:10:48.972Z,1008.45
2017-04-15T04:11:14.533Z,1008.39
2017-04-15T04:11:40.102Z,1008.43
2017-04-15T04:12:05.675Z,1008.44
2017-04-15T04:12:31.244Z,1008.45
2017-04-15T04:12:56.840Z,1008.45
2017-04-15T04:13:22.396Z,1008.47
2017-04-15T04:13:48.063Z,1008.46
2017-04-15T04:14:13.640Z,1008.4
2017-04-15T04:14:39.220Z,1008.47
2017-04-15T04:15:04.789Z,1008.45
2017-04-15T04:15:30.350Z,1008.41
2017-04-15T04:15:55.992Z,1008.41
2017-04-15T04:16:21.583Z,1008.43
2017-04-15T04:16:47.172Z,1008.41
2017-04-15T04:17:12.782Z,1008.41
2017-04-15T04:17:38.363Z,1008.41
2017-04-15T04:18:03.923Z,1008.35
2017-04-15T04:18:29.504Z,1008.35
2017-04-15T04:18:55.206Z,1008.39
2017-04-15T04:19:20.769Z,1008.41
2017-04-15T04:19:46.342Z,1008.34
2017-04-15T04:20:11.967Z,1008.35
2017-04-15T04:20:37.542Z,1008.34
2017-04-15T04:21:03.097Z,1008.3
2017-04-15T04:21:28.684Z,1008.33
2017-04-15T04:21:54.252Z,1008.31
2017-04-15T04:22:19.821Z,1008.27
2017-04-15T04:22:45.385Z,1008.29
2017-04-15T04:23:10.963Z,1008.26
2017-04-15T04:23:36.620Z,1008.29
2017-04-15T04:24:02.197Z,1008.33
2017-04-15T04:24:27.771Z,1008.29
2017-04-15T04:24:53.381Z,1008.3
2017-04-15T04:25:18.996Z,1008.33
2017-04-15T04:25:44.570Z,1008.32
2017-04-15T04:26:10.126Z,1008.34
2017-04-15T04:26:35.818Z,1008.32
2017-04-15T04:27:01.392Z,1008.33
2017-04-15T04:27:26.962Z,1008.31
2017-04-15T04:27:52.548Z,1008.31
2017-04-15T04:28:18.195Z,1008.31
2017-04-15T04:28:43.783Z,1008.29
2017-04-15T04:29:09.382Z,1008.3
2017-04-15T04:29:35.003Z,1008.3
2017-04-15T04:30:00.563Z,1008.31
2017-04-15T04:30:26.138Z,1008.28
2017-04-15T04:30:51.788Z,1008.33
2017-04-15T04:31:17.373Z,1008.31
2017-04-15T04:31:42.939Z,1008.3
2017-04-15T04:32:08.636Z,1008.28
2017-04-15T04:32:34.208Z,1008.27
2017-04-15T04:32:59.773Z,1008.28
2017-04-15T04:33:25.338Z,1008.28
2017-04-15T04:33:50.903Z,1008.29
2017-04-15T04:34:16.473Z,1008.33
2017-04-15T04:34:42.083Z,1008.22
2017-04-15T04:35:07.663Z,1008.22
2017-04-15T04:35:33.238Z,1008.25
2017-04-15T04:35:58.852Z,1008.25
2017-04-15T04:36:24.433Z,1008.23
2017-04-15T04:36:50.048Z,1008.25
2017-04-15T04:37:15.629Z,1008.2
2017-04-15T04:37:41.196Z,1008.25
2017-04-15T04:38:06.750Z,1008.21
2017-04-15T04:38:32.327Z,1008.2
2017-04-15T04:38:57.899Z,1008.21
2017-04-15T04:39:23.462Z,1008.2
2017-04-15T04:39:49.029Z,1008.23
2017-04-15T04:40:14.590Z,1008.22
2017-04-15T04:40:40.139Z,1008.23
2017-04-15T04:41:05.702Z,1008.24
2017-04-15T04:41:31.268Z,1008.22
2017-04-15T04:42:45.006Z,1008.23
2017-04-15T04:43:10.552Z,1008.21
2017-04-15T04:43:36.225Z,1008.22
2017-04-15T04:44:01.842Z,1008.23
2017-04-15T04:44:27.401Z,1008.22
2017-04-15T04:44:52.951Z,1008.19
2017-04-15T04:45:18.509Z,1008.22
2017-04-15T04:45:44.130Z,1008.2
2017-04-15T04:46:09.682Z,1008.21
2017-04-15T04:46:35.248Z,1008.19
2017-04-15T04:47:00.822Z,1008.22
2017-04-15T04:47:26.381Z,1008.21
2017-04-15T04:47:51.938Z,1008.2
2017-04-15T04:48:17.494Z,1008.14
2017-04-15T04:48:43.112Z,1008.16
2017-04-15T04:49:08.693Z,1008.14
2017-04-15T04:49:34.289Z,1008.15
2017-04-15T04:49:59.842Z,1008.16
2017-04-15T04:50:25.440Z,1008.16
2017-04-15T04:50:51.033Z,1008.14
2017-04-15T04:51:16.551Z,1008.14
2017-04-15T04:51:42.115Z,1008.17
2017-04-15T04:52:07.682Z,1008.16
2017-04-15T04:52:33.254Z,1008.16
2017-04-15T04:52:58.830Z,1008.18
2017-04-15T04:53:24.394Z,1008.17
2017-04-15T04:53:49.978Z,1008.17
2017-04-15T04:54:15.541Z,1008.17
2017-04-15T04:54:41.102Z,1008.18
2017-04-15T04:55:06.674Z,1008.19
2017-04-15T04:55:32.232Z,1008.16
2017-04-15T04:55:57.796Z,1008.13
2017-04-15T04:56:23.399Z,1008.15
2017-04-15T04:56:48.965Z,1008.16
2017-04-15T04:57:14.529Z,1008.14
2017-04-15T04:57:40.136Z,1008.16
2017-04-15T04:58:05.705Z,1008.14
2017-04-15T04:58:31.923Z,1008.16
2017-04-15T04:58:57.618Z,1008.2
2017-04-15T04:59:23.185Z,1008.14
2017-04-15T04:59:48.757Z,1008.15
2017-04-15T05:00:14.388Z,1008.17
2017-04-15T05:00:39.943Z,1008.13
2017-04-15T05:01:05.504Z,1008.19
2017-04-15T05:01:31.055Z,1008.16
2017-04-15T05:01:56.608Z,1008.22
2017-04-15T05:02:22.175Z,1008.14
2017-04-15T05:02:47.788Z,1008.18
2017-04-15T05:03:13.364Z,1008.15
2017-04-15T05:03:38.920Z,1008.19
2017-04-15T05:04:04.595Z,1008.16
2017-04-15T05:04:30.192Z,1008.16
2017-04-15T05:04:55.761Z,1008.16
2017-04-15T05:05:21.310Z,1008.15
2017-04-15T05:05:46.968Z,1008.18
2017-04-15T05:06:12.519Z,1008.15
2017-04-15T05:06:38.151Z,1008.15
2017-04-15T05:07:03.890Z,1008.2
2017-04-15T05:07:29.456Z,1008.14
2017-04-15T05:07:55.006Z,1008.15
2017-04-15T05:08:20.560Z,1008.15
2017-04-15T05:08:46.123Z,1008.13
2017-04-15T05:09:11.659Z,1008.18
2017-04-15T05:09:37.230Z,1008.19
2017-04-15T05:10:02.802Z,1008.18
2017-04-15T05:10:28.421Z,1008.18
2017-04-15T05:10:54.040Z,1008.16
2017-04-15T05:11:19.612Z,1008.18
2017-04-15T05:11:45.179Z,1008.14
2017-04-15T05:12:10.762Z,1008.16
2017-04-15T05:12:36.338Z,1008.16
2017-04-15T05:13:01.920Z,1008.11
2017-04-15T05:13:27.609Z,1008.15
2017-04-15T05:13:53.160Z,1008.12
2017-04-15T05:14:18.726Z,1008.13
2017-04-15T05:14:44.297Z,1008.13
2017-04-15T05:15:09.854Z,1008.13
2017-04-15T05:15:35.414Z,1008.11
2017-04-15T05:16:00.983Z,1008.14
2017-04-15T05:16:26.553Z,1008.16
2017-04-15T05:16:52.113Z,1008.16
2017-04-15T05:17:17.699Z,1008.18
2017-04-15T05:17:43.270Z,1008.12
2017-04-15T05:18:08.833Z,1008.13
2017-04-15T05:18:34.529Z,1008.14
2017-04-15T05:19:00.110Z,1008.17
2017-04-15T05:19:25.682Z,1008.14
2017-04-15T05:19:51.232Z,1008.13
2017-04-15T05:20:16.797Z,1008.17
2017-04-15T05:20:42.361Z,1008.16
2017-04-15T05:21:07.920Z,1008.13
2017-04-15T05:21:33.515Z,1008.14
2017-04-15T05:21:59.084Z,1008.12
2017-04-15T05:22:24.660Z,1008.15
2017-04-15T05:22:50.329Z,1008.15
2017-04-15T05:23:15.893Z,1008.13
2017-04-15T05:23:41.459Z,1008.13
2017-04-15T05:24:07.150Z,1008.13
2017-04-15T05:24:32.748Z,1008.13
2017-04-15T05:24:58.357Z,1008.17
2017-04-15T05:25:23.922Z,1008.16
2017-04-15T05:25:49.492Z,1008.13
2017-04-15T05:26:15.099Z,1008.15
2017-04-15T05:26:40.680Z,1008.19
2017-04-15T05:27:06.248Z,1008.16
2017-04-15T05:27:31.802Z,1008.15
2017-04-15T05:27:57.361Z,1008.18
2017-04-15T05:28:22.924Z,1008.17
2017-04-15T05:29:41.937Z,1008.13
2017-04-15T05:30:07.503Z,1008.21
2017-04-15T05:30:33.046Z,1008.18
2017-04-15T05:30:58.617Z,1008.17
2017-04-15T05:31:24.194Z,1008.19
2017-04-15T05:31:49.764Z,1008.21
2017-04-15T05:32:15.313Z,1008.21
2017-04-15T05:32:40.858Z,1008.21
2017-04-15T05:33:06.413Z,1008.2
2017-04-15T05:33:31.978Z,1008.21
2017-04-15T05:33:57.531Z,1008.23
2017-04-15T05:34:23.079Z,1008.22
2017-04-15T05:34:48.658Z,1008.18
2017-04-15T05:35:14.224Z,1008.2
2017-04-15T05:35:39.846Z,1008.18
2017-04-15T05:36:05.404Z,1008.19
2017-04-15T05:36:30.962Z,1008.19
2017-04-15T05:36:56.553Z,1008.19
2017-04-15T05:37:22.123Z,1008.17
2017-04-15T05:37:47.682Z,1008.19
2017-04-15T05:38:13.252Z,1008.19
2017-04-15T05:38:38.813Z,1008.16
2017-04-15T05:39:04.390Z,1008.18
2017-04-15T05:39:29.952Z,1008.22
2017-04-15T05:39:55.524Z,1008.21
2017-04-15T05:40:21.060Z,1008.24
2017-04-15T05:40:46.620Z,1008.24
2017-04-15T05:41:12.204Z,1008.25
2017-04-15T05:41:37.759Z,1008.19
2017-04-15T05:42:03.321Z,1008.21
2017-04-15T05:42:28.867Z,1008.21
2017-04-15T05:42:54.436Z,1008.18
2017-04-15T05:43:20.006Z,1008.2
2017-04-15T05:43:45.573Z,1008.23
2017-04-15T05:44:11.189Z,1008.19
2017-04-15T05:44:36.761Z,1008.23
2017-04-15T05:45:02.326Z,1008.17
2017-04-15T05:45:27.877Z,1008.17
2017-04-15T05:45:53.470Z,1008.23
2017-04-15T05:46:19.004Z,1008.19
2017-04-15T05:46:44.562Z,1008.16
2017-04-15T05:47:10.133Z,1008.15
2017-04-15T05:47:35.751Z,1008.13
2017-04-15T05:48:01.313Z,1008.11
2017-04-15T05:48:26.899Z,1008.14
2017-04-15T05:48:52.469Z,1008.11
2017-04-15T05:49:18.185Z,1008.18
2017-04-15T05:49:43.742Z,1008.14
2017-04-15T05:50:09.306Z,1008.16
2017-04-15T05:50:34.963Z,1008.15
2017-04-15T05:51:00.550Z,1008.12
2017-04-15T05:51:26.127Z,1008.11
2017-04-15T05:51:51.679Z,1008.1
2017-04-15T05:52:17.262Z,1008.09
2017-04-15T05:52:42.818Z,1008.03
2017-04-15T05:53:08.395Z,1008.07
2017-04-15T05:53:33.993Z,1008.07
2017-04-15T05:53:59.555Z,1008.02
2017-04-15T05:54:25.130Z,1008
2017-04-15T05:54:50.693Z,1008.05
2017-04-15T05:55:16.302Z,1008.04
2017-04-15T05:55:41.947Z,1008.11
2017-04-15T05:56:07.489Z,1008.13
2017-04-15T05:56:33.032Z,1008.11
2017-04-15T05:56:58.593Z,1008.1
2017-04-15T05:57:24.147Z,1008.11
2017-04-15T05:57:49.745Z,1008.15
2017-04-15T05:58:15.298Z,1008.16
2017-04-15T05:58:40.864Z,1008.12
2017-04-15T05:59:06.422Z,1008.11
2017-04-15T05:59:31.984Z,1008.15
2017-04-15T05:59:57.577Z,1008.08
2017-04-15T06:00:23.137Z,1008.06
2017-04-15T06:01:26.713Z,1008.11
2017-04-15T06:01:52.286Z,1008.1
2017-04-15T06:02:17.894Z,1008.13
2017-04-15T06:02:43.466Z,1008.12
2017-04-15T06:03:09.011Z,1008.12
2017-04-15T06:03:34.566Z,1008.09
2017-04-15T06:04:00.176Z,1008.14
2017-04-15T06:04:25.732Z,1008.1
2017-04-15T06:04:51.297Z,1008.11
2017-04-15T06:05:16.857Z,1008.09
2017-04-15T06:06:14.923Z,1008.09
2017-04-15T06:06:40.489Z,1008.09
2017-04-15T06:07:06.123Z,1008.07
2017-04-15T06:07:31.733Z,1008.05
2017-04-15T06:07:57.297Z,1008.05
2017-04-15T06:08:22.916Z,1008.06
2017-04-15T06:08:48.482Z,1008.1
2017-04-15T06:09:14.021Z,1008.09
2017-04-15T06:09:39.598Z,1008.12
2017-04-15T06:10:05.304Z,1008.06
2017-04-15T06:10:30.871Z,1008.08
2017-04-15T06:10:56.434Z,1008.08
2017-04-15T06:11:21.992Z,1008.1
2017-04-15T06:11:47.547Z,1008.11
2017-04-15T06:12:13.118Z,1008.08
2017-04-15T06:12:38.666Z,1008.11
2017-04-15T06:13:04.214Z,1008.06
2017-04-15T06:13:29.773Z,1008.1
2017-04-15T06:13:55.353Z,1008.1
2017-04-15T06:14:20.921Z,1008.07
2017-04-15T06:14:46.511Z,1008.12
2017-04-15T06:15:12.065Z,1008.12
2017-04-15T06:16:25.859Z,1008.09
2017-04-15T06:16:51.510Z,1008.06
2017-04-15T06:17:17.066Z,1008.08
2017-04-15T06:17:42.642Z,1008.06
2017-04-15T06:18:08.182Z,1008.07
2017-04-15T06:18:33.739Z,1008.12
2017-04-15T06:18:59.282Z,1008.11
2017-04-15T06:19:24.850Z,1008.1
2017-04-15T06:19:50.419Z,1008.08
2017-04-15T06:20:15.993Z,1008.11
2017-04-15T06:20:41.555Z,1008.12
2017-04-15T06:21:07.110Z,1008.05
2017-04-15T06:21:32.669Z,1008.09
2017-04-15T06:21:58.254Z,1008.11
2017-04-15T06:22:23.823Z,1008.11
2017-04-15T06:22:49.380Z,1008.08
2017-04-15T06:23:14.943Z,1008.06
2017-04-15T06:23:40.519Z,1008.11
2017-04-15T06:24:06.097Z,1008.12
2017-04-15T06:24:31.653Z,1008.1
2017-04-15T06:24:57.212Z,1008.12
2017-04-15T06:25:22.768Z,1008.11
2017-04-15T06:25:48.450Z,1008.13
2017-04-15T06:26:14.014Z,1008.11
2017-04-15T06:26:39.566Z,1008.12
2017-04-15T06:27:05.122Z,1008.1
2017-04-15T06:27:30.690Z,1008.06
2017-04-15T06:27:56.254Z,1008.05
2017-04-15T06:28:21.827Z,1008.07
2017-04-15T06:28:47.380Z,1008.14
2017-04-15T06:29:12.939Z,1008.08
2017-04-15T06:29:38.509Z,1008.09
2017-04-15T06:30:04.092Z,1008.08
2017-04-15T06:30:29.644Z,1008.09
2017-04-15T06:30:55.200Z,1008.08
2017-04-15T06:31:20.756Z,1008.1
2017-04-15T06:31:46.335Z,1008.1
2017-04-15T06:32:11.887Z,1008.06
2017-04-15T06:32:37.477Z,1008.08
2017-04-15T06:33:03.054Z,1008.07
2017-04-15T06:33:28.621Z,1008.08
2017-04-15T06:33:54.251Z,1008.02
2017-04-15T06:34:19.848Z,1008.02
2017-04-15T06:34:45.423Z,1008.05
2017-04-15T06:35:11.003Z,1008.07
2017-04-15T06:35:36.557Z,1008.07
2017-04-15T06:36:02.153Z,1008.07
2017-04-15T06:36:27.720Z,1008.03
2017-04-15T06:36:53.290Z,1008.04
2017-04-15T06:37:18.931Z,1008.05
2017-04-15T06:37:44.492Z,1008.05
2017-04-15T06:38:10.053Z,1008.05
2017-04-15T06:38:35.640Z,1008.05
2017-04-15T06:39:01.258Z,1008.1
2017-04-15T06:39:26.829Z,1008.08
2017-04-15T06:39:52.428Z,1008.07
2017-04-15T06:40:18.011Z,1008.09
2017-04-15T06:40:43.679Z,1008.12
2017-04-15T06:41:09.234Z,1008.07
2017-04-15T06:41:34.777Z,1008
2017-04-15T06:42:00.320Z,1008.05
2017-04-15T06:42:25.859Z,1008.08
2017-04-15T06:42:51.501Z,1008.05
2017-04-15T06:43:17.054Z,1008.05
2017-04-15T06:43:42.700Z,1008.02
2017-04-15T06:44:08.328Z,1008.05
2017-04-15T06:44:33.861Z,1008.11
2017-04-15T06:44:59.420Z,1008.08
2017-04-15T06:45:25.131Z,1008.03
2017-04-15T06:45:50.690Z,1008.07
2017-04-15T06:46:16.257Z,1008.04
2017-04-15T06:46:41.837Z,1008.06
2017-04-15T06:47:07.387Z,1008.09
2017-04-15T06:47:32.965Z,1008.11
2017-04-15T06:47:58.615Z,1008.08
2017-04-15T06:48:24.216Z,1008.08
2017-04-15T06:48:49.774Z,1008.11
2017-04-15T06:49:15.348Z,1008.12
2017-04-15T06:49:40.899Z,1008.12
2017-04-15T06:50:06.452Z,1008.11
2017-04-15T06:50:32.041Z,1008.11
2017-04-15T06:50:57.619Z,1008.11
2017-04-15T06:51:23.172Z,1008.15
2017-04-15T06:51:48.770Z,1008.12
2017-04-15T06:52:14.354Z,1008.09
2017-04-15T06:52:39.922Z,1008.11
2017-04-15T06:53:05.494Z,1008.15
2017-04-15T06:53:31.043Z,1008.07
2017-04-15T06:53:56.613Z,1008.11
2017-04-15T06:54:22.185Z,1008.15
2017-04-15T06:54:47.755Z,1008.1
2017-04-15T06:55:13.316Z,1008.09
2017-04-15T06:55:38.880Z,1008.09
2017-04-15T06:56:04.457Z,1008.1
2017-04-15T06:56:30.134Z,1008.11
2017-04-15T06:56:55.676Z,1008.07
2017-04-15T06:57:21.233Z,1008.06
2017-04-15T06:57:46.816Z,1008.11
2017-04-15T06:58:12.371Z,1008.12
2017-04-15T06:58:38.032Z,1008.11
2017-04-15T06:59:03.659Z,1008.05
2017-04-15T06:59:29.236Z,1008.07
2017-04-15T06:59:54.819Z,1008.03
2017-04-15T07:00:20.422Z,1008.08
2017-04-15T07:00:46.057Z,1008.04
2017-04-15T07:01:11.610Z,1008.03
2017-04-15T07:01:37.170Z,1008.08
2017-04-15T07:02:02.731Z,1008.05
2017-04-15T07:02:28.423Z,1008.06
2017-04-15T07:02:53.992Z,1008
2017-04-15T07:03:19.561Z,1008.03
2017-04-15T07:03:45.234Z,1008.01
2017-04-15T07:04:10.797Z,1008.08
2017-04-15T07:04:36.348Z,1008.07
2017-04-15T07:05:01.929Z,1008.05
2017-04-15T07:05:27.496Z,1008.04
2017-04-15T07:05:53.089Z,1008.02
2017-04-15T07:06:18.637Z,1008.09
2017-04-15T07:06:44.189Z,1008.11
2017-04-15T07:07:09.815Z,1008.11
2017-04-15T07:07:36.027Z,1008.07
2017-04-15T07:08:00.930Z,1008.06
2017-04-15T07:08:26.522Z,1008.03
2017-04-15T07:08:52.126Z,1008.05
2017-04-15T07:09:17.695Z,1007.98
2017-04-15T07:09:43.261Z,1008.06
2017-04-15T07:10:08.809Z,1008.07
2017-04-15T07:10:34.358Z,1008.04
2017-04-15T07:10:59.991Z,1008.06
2017-04-15T07:11:25.563Z,1008.09
2017-04-15T07:11:51.116Z,1008.07
2017-04-15T07:12:16.670Z,1008.09
2017-04-15T07:12:42.227Z,1008.02
2017-04-15T07:13:07.775Z,1008.04
2017-04-15T07:13:33.371Z,1008.11
2017-04-15T07:13:58.951Z,1008.03
2017-04-15T07:14:24.508Z,1008.06
2017-04-15T07:14:50.151Z,1008.01
2017-04-15T07:15:15.733Z,1008.07
2017-04-15T07:15:41.294Z,1008.07
2017-04-15T07:16:06.995Z,1008.1
2017-04-15T07:16:32.550Z,1008.13
2017-04-15T07:16:58.123Z,1008.12
2017-04-15T07:17:23.681Z,1008.07
2017-04-15T07:17:49.351Z,1008.05
2017-04-15T07:18:14.913Z,1008.06
2017-04-15T07:18:40.552Z,1008.08
2017-04-15T07:19:06.180Z,1008.16
2017-04-15T07:19:31.743Z,1008.09
2017-04-15T07:19:57.313Z,1008.11
2017-04-15T07:20:23.013Z,1008.06
2017-04-15T07:20:48.573Z,1008.08
2017-04-15T07:21:14.140Z,1008.06
2017-04-15T07:21:39.810Z,1008.1
2017-04-15T07:22:05.394Z,1008.13
2017-04-15T07:22:30.962Z,1008.08
2017-04-15T07:22:56.533Z,1008.06
2017-04-15T07:23:22.221Z,1008.03
2017-04-15T07:23:47.792Z,1008.1
2017-04-15T07:24:13.348Z,1008.05
2017-04-15T07:24:38.983Z,1008.09
2017-04-15T07:25:04.602Z,1008.08
2017-04-15T07:25:30.154Z,1008.1
2017-04-15T07:25:55.726Z,1008.06
2017-04-15T07:26:21.289Z,1008.09
2017-04-15T07:26:46.883Z,1008.12
2017-04-15T07:27:12.461Z,1008.17
2017-04-15T07:27:38.035Z,1008.08
2017-04-15T07:28:03.597Z,1008.12
2017-04-15T07:28:29.147Z,1008.04
2017-04-15T07:28:54.734Z,1007.96
2017-04-15T07:29:20.302Z,1008.05
2017-04-15T07:29:45.871Z,1008.05
2017-04-15T07:30:11.559Z,1008.1
2017-04-15T07:30:37.130Z,1008.1
2017-04-15T07:31:02.711Z,1008.09
2017-04-15T07:31:28.281Z,1008.17
2017-04-15T07:31:53.852Z,1008.12
2017-04-15T07:32:19.456Z,1008.12
2017-04-15T07:32:45.018Z,1008.07
2017-04-15T07:33:10.581Z,1008.13
2017-04-15T07:33:36.131Z,1008.11
2017-04-15T07:34:01.679Z,1008.12
2017-04-15T07:34:27.239Z,1008.17
2017-04-15T07:34:52.874Z,1008.18
2017-04-15T07:35:18.454Z,1008.18
2017-04-15T07:35:44.003Z,1008.14
2017-04-15T07:36:09.548Z,1008.14
2017-04-15T07:36:35.100Z,1008.08
2017-04-15T07:37:00.672Z,1008.14
2017-04-15T07:37:26.243Z,1008.1
2017-04-15T07:37:51.823Z,1008.12
2017-04-15T07:38:17.390Z,1008.09
2017-04-15T07:38:42.972Z,1008.06
2017-04-15T07:39:08.543Z,1008.1
2017-04-15T07:39:34.111Z,1008.09
2017-04-15T07:39:59.659Z,1008.07
2017-04-15T07:40:25.228Z,1008.14
2017-04-15T07:40:50.860Z,1008.08
2017-04-15T07:41:16.513Z,1008.08
2017-04-15T07:41:42.084Z,1008.06
2017-04-15T07:42:07.650Z,1008.07
2017-04-15T07:42:33.232Z,1008.06
2017-04-15T07:42:58.833Z,1008.05
2017-04-15T07:43:24.389Z,1008.09
2017-04-15T07:43:50.094Z,1008.07
2017-04-15T07:44:15.724Z,1008.09
2017-04-15T07:44:41.294Z,1008.09
2017-04-15T07:45:06.932Z,1008.14
2017-04-15T07:45:32.523Z,1008.08
2017-04-15T07:45:58.099Z,1008.11
2017-04-15T07:46:23.658Z,1008.09
2017-04-15T07:46:49.322Z,1008.09
2017-04-15T07:47:14.913Z,1008.02
2017-04-15T07:47:40.495Z,1008.06
2017-04-15T07:48:06.067Z,1008.04
2017-04-15T07:48:31.672Z,1008.07
2017-04-15T07:48:57.232Z,1008.05
2017-04-15T07:49:22.778Z,1008.06
2017-04-15T07:49:48.347Z,1008.05
2017-04-15T07:50:13.920Z,1008.05
2017-04-15T07:50:39.497Z,1008.07
2017-04-15T07:51:05.051Z,1008.04
2017-04-15T07:51:30.606Z,1008.07
2017-04-15T07:51:56.174Z,1008.11
2017-04-15T07:52:21.744Z,1008.06
2017-04-15T07:52:47.310Z,1008.06
2017-04-15T07:53:12.943Z,1008.11
2017-04-15T07:53:38.491Z,1008.1
2017-04-15T07:54:04.082Z,1008.12
2017-04-15T07:54:29.690Z,1008.11
2017-04-15T07:54:55.290Z,1008.16
2017-04-15T07:55:20.844Z,1008.15
2017-04-15T07:55:46.424Z,1008.14
2017-04-15T07:56:12.023Z,1008.16
2017-04-15T07:56:37.690Z,1008.09
2017-04-15T07:57:03.257Z,1008.12
2017-04-15T07:57:28.824Z,1008.12
2017-04-15T07:57:54.381Z,1008.11
2017-04-15T07:58:20.094Z,1008.09
2017-04-15T07:58:45.670Z,1008.15
2017-04-15T07:59:11.229Z,1008.15
2017-04-15T07:59:36.830Z,1008.19
2017-04-15T08:00:02.493Z,1008.19
2017-04-15T08:00:28.064Z,1008.19
2017-04-15T08:00:53.665Z,1008.24
2017-04-15T08:01:19.278Z,1008.27
2017-04-15T08:01:44.831Z,1008.2
2017-04-15T08:02:10.391Z,1008.21
2017-04-15T08:02:36.098Z,1008.22
2017-04-15T08:03:01.686Z,1008.27
2017-04-15T08:03:27.240Z,1008.25
2017-04-15T08:03:52.822Z,1008.26
2017-04-15T08:04:18.369Z,1008.26
2017-04-15T08:04:43.920Z,1008.27
2017-04-15T08:05:09.492Z,1008.22
2017-04-15T08:05:35.041Z,1008.27
2017-04-15T08:06:00.599Z,1008.34
2017-04-15T08:06:26.150Z,1008.27
2017-04-15T08:06:51.700Z,1008.37
2017-04-15T08:07:17.251Z,1008.29
2017-04-15T08:07:42.798Z,1008.28
2017-04-15T08:08:08.343Z,1008.16
2017-04-15T08:08:33.911Z,1008.26
2017-04-15T08:08:59.485Z,1008.38
2017-04-15T08:09:25.063Z,1008.29
2017-04-15T08:09:50.644Z,1008.33
2017-04-15T08:10:16.222Z,1008.4
2017-04-15T08:10:41.802Z,1008.45
2017-04-15T08:11:07.434Z,1008.44
2017-04-15T08:11:32.990Z,1008.41
2017-04-15T08:11:58.596Z,1008.37
2017-04-15T08:12:24.148Z,1008.37
2017-04-15T08:12:49.734Z,1008.44
2017-04-15T08:13:15.292Z,1008.47
2017-04-15T08:13:40.862Z,1008.45
2017-04-15T08:14:06.429Z,1008.34
2017-04-15T08:14:31.985Z,1008.42
2017-04-15T08:14:57.563Z,1008.44
2017-04-15T08:15:23.135Z,1008.33
2017-04-15T08:15:48.707Z,1008.38
2017-04-15T08:16:14.318Z,1008.4
2017-04-15T08:16:39.905Z,1008.35
2017-04-15T08:17:05.477Z,1008.32
2017-04-15T08:17:31.060Z,1008.4
2017-04-15T08:17:56.629Z,1008.4
2017-04-15T08:18:22.181Z,1008.4
2017-04-15T08:18:47.760Z,1008.41
2017-04-15T08:19:13.314Z,1008.47
2017-04-15T08:19:38.875Z,1008.41
2017-04-15T08:20:04.452Z,1008.42
2017-04-15T08:20:30.044Z,1008.38
2017-04-15T08:20:55.622Z,1008.46
2017-04-15T08:21:21.251Z,1008.42
2017-04-15T08:21:46.847Z,1008.42
2017-04-15T08:22:12.422Z,1008.51
2017-04-15T08:22:38.001Z,1008.4
2017-04-15T08:23:03.580Z,1008.5
2017-04-15T08:23:29.159Z,1008.45
2017-04-15T08:23:54.714Z,1008.43
2017-04-15T08:24:20.275Z,1008.48
2017-04-15T08:24:45.831Z,1008.55
2017-04-15T08:25:11.500Z,1008.52
2017-04-15T08:25:37.056Z,1008.53
2017-04-15T08:26:02.607Z,1008.45
2017-04-15T08:26:28.294Z,1008.46
2017-04-15T08:26:53.863Z,1008.44
2017-04-15T08:27:19.422Z,1008.42
2017-04-15T08:27:45.001Z,1008.43
2017-04-15T08:28:10.564Z,1008.57
2017-04-15T08:28:36.132Z,1008.59
2017-04-15T08:29:01.702Z,1008.48
2017-04-15T08:29:27.253Z,1008.54
2017-04-15T08:29:52.805Z,1008.51
2017-04-15T08:30:18.423Z,1008.5
2017-04-15T08:30:44.011Z,1008.52
2017-04-15T08:31:09.569Z,1008.53
2017-04-15T08:31:35.126Z,1008.51
2017-04-15T08:32:00.713Z,1008.52
2017-04-15T08:32:26.299Z,1008.49
2017-04-15T08:32:51.883Z,1008.54
2017-04-15T08:33:17.443Z,1008.48
2017-04-15T08:33:43.024Z,1008.53
2017-04-15T08:34:08.580Z,1008.51
2017-04-15T08:34:34.143Z,1008.49
2017-04-15T08:34:59.713Z,1008.55
2017-04-15T08:35:25.275Z,1008.52
2017-04-15T08:35:50.840Z,1008.47
2017-04-15T08:36:16.397Z,1008.48
2017-04-15T08:36:42.020Z,1008.53
2017-04-15T08:37:07.611Z,1008.49
2017-04-15T08:37:33.178Z,1008.49
2017-04-15T08:37:58.824Z,1008.5
2017-04-15T08:38:24.393Z,1008.58
2017-04-15T08:38:49.951Z,1008.5
2017-04-15T08:39:15.654Z,1008.55
2017-04-15T08:39:41.218Z,1008.59
2017-04-15T08:40:06.910Z,1008.54
2017-04-15T08:40:32.460Z,1008.59
2017-04-15T08:40:58.010Z,1008.6
2017-04-15T08:41:23.579Z,1008.64
2017-04-15T08:41:49.145Z,1008.48
2017-04-15T08:42:14.714Z,1008.57
2017-04-15T08:42:40.276Z,1008.65
2017-04-15T08:43:05.833Z,1008.54
2017-04-15T08:43:31.404Z,1008.55
2017-04-15T08:43:56.980Z,1008.49
2017-04-15T08:44:22.642Z,1008.58
2017-04-15T08:44:48.209Z,1008.59
2017-04-15T08:45:13.778Z,1008.58
2017-04-15T08:45:39.350Z,1008.59
2017-04-15T08:46:04.909Z,1008.64
2017-04-15T08:46:30.450Z,1008.55
2017-04-15T08:46:56.019Z,1008.57
2017-04-15T08:47:21.611Z,1008.61
2017-04-15T08:47:47.173Z,1008.7
2017-04-15T08:48:12.732Z,1008.63
2017-04-15T08:48:38.318Z,1008.62
2017-04-15T08:49:03.999Z,1008.63
2017-04-15T08:49:29.572Z,1008.7
2017-04-15T08:49:55.149Z,1008.7
2017-04-15T08:50:20.814Z,1008.75
2017-04-15T08:50:46.369Z,1008.65
2017-04-15T08:51:11.949Z,1008.66
2017-04-15T08:51:37.520Z,1008.71
2017-04-15T08:52:03.073Z,1008.72
2017-04-15T08:52:28.645Z,1008.75
2017-04-15T08:52:54.207Z,1008.73
2017-04-15T08:53:19.782Z,1008.73
2017-04-15T08:53:45.342Z,1008.77
2017-04-15T08:54:10.902Z,1008.71
2017-04-15T08:54:36.471Z,1008.73
2017-04-15T08:55:02.028Z,1008.78
2017-04-15T08:55:27.608Z,1008.73
2017-04-15T08:55:53.178Z,1008.69
2017-04-15T08:56:18.747Z,1008.71
2017-04-15T08:56:44.344Z,1008.71
2017-04-15T08:57:09.908Z,1008.7
2017-04-15T08:57:35.460Z,1008.76
2017-04-15T08:58:01.023Z,1008.7
2017-04-15T08:58:26.610Z,1008.66
2017-04-15T08:58:52.175Z,1008.66
2017-04-15T08:59:17.739Z,1008.7
2017-04-15T08:59:43.293Z,1008.73
2017-04-15T09:00:08.865Z,1008.73
2017-04-15T09:00:34.518Z,1008.71
2017-04-15T09:01:00.088Z,1008.66
2017-04-15T09:01:25.650Z,1008.75
2017-04-15T09:01:51.208Z,1008.68
2017-04-15T09:02:16.781Z,1008.71
2017-04-15T09:02:42.338Z,1008.64
2017-04-15T09:03:07.902Z,1008.67
2017-04-15T09:03:33.470Z,1008.7
2017-04-15T09:03:59.040Z,1008.7
2017-04-15T09:04:24.600Z,1008.72
2017-04-15T09:04:50.193Z,1008.74
2017-04-15T09:05:15.758Z,1008.75
2017-04-15T09:05:41.466Z,1008.78
2017-04-15T09:06:07.032Z,1008.67
2017-04-15T09:06:32.585Z,1008.7
2017-04-15T09:06:58.183Z,1008.76
2017-04-15T09:07:23.816Z,1008.73
2017-04-15T09:07:49.416Z,1008.77
2017-04-15T09:08:14.992Z,1008.73
2017-04-15T09:08:40.569Z,1008.77
2017-04-15T09:09:06.152Z,1008.81
2017-04-15T09:09:31.749Z,1008.77
2017-04-15T09:09:57.300Z,1008.76
2017-04-15T09:10:22.867Z,1008.85
2017-04-15T09:10:48.528Z,1008.83
2017-04-15T09:11:14.107Z,1008.78
2017-04-15T09:11:39.664Z,1008.72
2017-04-15T09:12:05.265Z,1008.73
2017-04-15T09:12:30.819Z,1008.7
2017-04-15T09:12:56.378Z,1008.77
2017-04-15T09:13:21.959Z,1008.72
2017-04-15T09:13:47.523Z,1008.75
2017-04-15T09:14:13.101Z,1008.78
2017-04-15T09:14:38.676Z,1008.68
2017-04-15T09:15:04.232Z,1008.73